createdAt,value
2019-05-02T00:03:21.004Z,52.60
2019-05-02T00:08:24.329Z,52.61
2019-05-02T00:13:27.621Z,52.63
2019-05-02T00:18:31.947Z,52.61
2019-05-02T00:23:36.290Z,52.60
2019-05-02T00:28:43.005Z,52.57
2019-05-02T00:33:44.669Z,52.61
2019-05-02T00:38:47.976Z,52.57
2019-05-02T00:43:51.269Z,52.58
2019-05-02T00:48:59.770Z,52.53
2019-05-02T00:54:01.360Z,52.47
2019-05-02T00:59:07.472Z,52.49
2019-05-02T01:04:11.410Z,52.47
2019-05-02T01:09:14.711Z,52.49
2019-05-02T01:14:18.077Z,52.47
2019-05-02T01:19:21.491Z,52.46
2019-05-02T01:24:24.789Z,52.45
2019-05-02T01:29:38.517Z,52.57
2019-05-02T01:34:43.465Z,52.66
2019-05-02T01:39:46.761Z,52.65
2019-05-02T01:44:50.102Z,52.61
2019-05-02T01:49:57.230Z,52.64
2019-05-02T01:54:58.494Z,52.59
2019-05-02T02:00:04.236Z,52.65
2019-05-02T02:05:07.241Z,52.64
2019-05-02T02:10:14.996Z,52.60
2019-05-02T02:15:15.637Z,52.60
2019-05-02T02:20:23.017Z,52.62
2019-05-02T02:25:36.292Z,52.61
2019-05-02T02:30:39.681Z,52.59
2019-05-02T02:35:49.774Z,52.60
2019-05-02T02:40:48.057Z,52.60
2019-05-02T02:45:57.601Z,52.58
2019-05-02T02:50:58.030Z,52.75
2019-05-02T02:56:03.831Z,53.47
2019-05-02T03:01:07.557Z,53.21
2019-05-02T03:06:10.870Z,53.18
2019-05-02T03:11:22.367Z,53.24
2019-05-02T03:16:22.512Z,53.21
2019-05-02T03:21:25.846Z,54.05
2019-05-02T03:26:29.171Z,53.66
2019-05-02T03:31:32.478Z,53.68
2019-05-02T03:36:37.220Z,53.69
2019-05-02T03:41:40.749Z,53.72
2019-05-02T03:46:44.083Z,53.74
2019-05-02T03:51:47.434Z,53.75
2019-05-02T03:56:51.595Z,54.04
2019-05-02T04:01:55.820Z,54.60
2019-05-02T04:07:01.107Z,55.59
2019-05-02T04:12:04.345Z,55.64
2019-05-02T04:17:07.687Z,55.53
2019-05-02T04:22:11.918Z,56.10
2019-05-02T04:27:15.499Z,55.40
2019-05-02T04:32:18.844Z,55.18
2019-05-02T04:37:22.144Z,56.18
2019-05-02T04:42:25.458Z,55.80
2019-05-02T04:47:29.192Z,56.40
2019-05-02T04:52:40.735Z,56.04
2019-05-02T04:57:46.774Z,56.51
2019-05-02T05:02:42.655Z,56.08
2019-05-02T05:07:46.688Z,55.63
2019-05-02T05:12:51.052Z,55.50
2019-05-02T05:17:54.389Z,55.56
2019-05-02T05:22:58.177Z,55.46
2019-05-02T05:28:05.822Z,55.18
2019-05-02T05:33:07.584Z,55.05
2019-05-02T05:38:11.622Z,55.25
2019-05-02T05:43:17.987Z,55.36
2019-05-02T05:48:19.966Z,55.28
2019-05-02T05:53:24.597Z,54.68
2019-05-02T05:58:28.471Z,54.42
2019-05-02T06:03:34.048Z,54.00
2019-05-02T06:08:37.103Z,53.30
2019-05-02T06:13:43.029Z,50.06
2019-05-02T06:18:45.624Z,48.12
2019-05-02T06:23:48.922Z,47.81
2019-05-02T06:28:52.249Z,47.18
2019-05-02T06:33:55.560Z,49.69
2019-05-02T06:38:58.935Z,48.54
2019-05-02T06:44:02.256Z,50.30
2019-05-02T06:49:05.660Z,48.13
2019-05-02T06:54:09.046Z,46.86
2019-05-02T06:59:13.188Z,44.89
2019-05-02T07:04:22.715Z,47.47
2019-05-02T07:09:22.737Z,45.75
2019-05-02T07:14:26.168Z,46.91
2019-05-02T07:19:32.271Z,48.00
2019-05-02T07:24:35.579Z,48.43
2019-05-02T07:29:38.881Z,49.66
2019-05-02T07:34:44.256Z,49.77
2019-05-02T07:39:47.240Z,49.60
2019-05-02T07:44:50.571Z,50.13
2019-05-02T07:49:53.922Z,50.14
2019-05-02T07:55:01.152Z,50.10
2019-05-02T08:00:02.790Z,50.19
2019-05-02T08:05:08.734Z,50.23
2019-05-02T08:10:11.404Z,50.21
2019-05-02T08:15:15.276Z,49.85
2019-05-02T08:20:19.566Z,49.75
2019-05-02T08:25:23.725Z,49.80
2019-05-02T08:30:28.720Z,49.69
2019-05-02T08:35:32.071Z,50.08
2019-05-02T08:40:35.412Z,49.93
2019-05-02T08:45:39.633Z,50.43
2019-05-02T08:50:42.921Z,51.03
2019-05-02T08:55:46.739Z,50.02
2019-05-02T09:00:50.161Z,50.29
2019-05-02T09:06:05.328Z,50.26
2019-05-02T09:10:59.109Z,50.22
2019-05-02T09:16:05.571Z,50.21
2019-05-02T09:21:07.465Z,50.43
2019-05-02T09:26:11.934Z,50.41
2019-05-02T09:31:15.844Z,50.57
2019-05-02T09:36:19.177Z,50.28
2019-05-02T09:41:26.938Z,50.58
2019-05-02T09:46:27.587Z,50.79
2019-05-02T09:51:32.463Z,50.55
2019-05-02T09:56:35.927Z,50.58
2019-05-02T10:01:42.111Z,50.95
2019-05-02T10:06:45.701Z,50.98
2019-05-02T10:11:49.066Z,50.76
2019-05-02T10:16:53.060Z,50.81
2019-05-02T10:21:56.531Z,50.76
2019-05-02T10:27:04.144Z,50.68
2019-05-02T10:32:07.557Z,50.53
2019-05-02T10:37:09.886Z,50.58
2019-05-02T10:42:13.212Z,50.78
2019-05-02T10:47:16.562Z,50.43
2019-05-02T10:52:21.696Z,50.46
2019-05-02T10:57:24.906Z,50.50
2019-05-02T11:02:29.871Z,50.52
2019-05-02T11:07:33.165Z,50.40
2019-05-02T11:12:44.068Z,50.48
2019-05-02T11:17:47.135Z,50.61
2019-05-02T11:22:52.632Z,50.68
2019-05-02T11:27:57.333Z,50.42
2019-05-02T11:33:02.884Z,50.44
2019-05-02T11:38:05.579Z,50.40
2019-05-02T11:43:08.858Z,50.64
2019-05-02T11:48:13.994Z,50.53
2019-05-02T11:53:28.861Z,50.58
2019-05-02T11:58:22.978Z,50.83
2019-05-02T12:03:42.995Z,50.52
2019-05-02T12:08:49.365Z,50.58
2019-05-02T12:13:54.798Z,50.25
2019-05-02T12:19:08.480Z,50.57
2019-05-02T12:24:02.241Z,50.66
2019-05-02T12:29:05.759Z,50.71
2019-05-02T12:34:09.152Z,50.81
2019-05-02T12:39:12.724Z,50.64
2019-05-02T12:44:16.010Z,50.80
2019-05-02T12:49:25.325Z,50.76
2019-05-02T12:54:24.366Z,50.72
2019-05-02T12:59:27.693Z,50.83
2019-05-02T13:04:32.253Z,50.64
2019-05-02T13:09:35.607Z,50.77
2019-05-02T13:14:39.026Z,50.34
2019-05-02T13:19:55.803Z,50.49
2019-05-02T13:24:54.176Z,50.51
2019-05-02T13:29:54.271Z,50.47
2019-05-02T13:35:02.330Z,50.38
2019-05-02T13:40:11.965Z,50.47
2019-05-02T13:45:22.876Z,50.55
2019-05-02T13:50:26.281Z,48.92
2019-05-02T13:55:33.737Z,48.28
2019-05-02T14:00:48.083Z,47.98
2019-05-02T14:05:53.790Z,47.90
2019-05-02T14:11:06.779Z,47.43
2019-05-02T14:16:12.095Z,47.42
2019-05-02T14:21:15.323Z,47.83
2019-05-02T14:26:29.581Z,48.04
2019-05-02T14:31:23.927Z,47.94
2019-05-02T14:36:27.344Z,47.91
2019-05-02T14:41:38.930Z,48.53
2019-05-02T14:46:39.375Z,49.30
2019-05-02T14:51:41.789Z,51.10
2019-05-02T14:56:49.737Z,52.32
2019-05-02T15:01:57.899Z,53.00
2019-05-02T15:07:01.901Z,52.18
2019-05-02T15:12:13.897Z,52.83
2019-05-02T15:17:11.986Z,52.70
2019-05-02T15:22:14.992Z,53.22
2019-05-02T15:27:18.324Z,54.05
2019-05-02T15:32:25.421Z,55.50
2019-05-02T15:37:29.139Z,55.72
2019-05-02T15:42:32.470Z,55.22
2019-05-02T15:47:41.117Z,56.61
2019-05-02T15:52:42.778Z,58.08
2019-05-02T15:57:48.018Z,56.43
2019-05-02T16:02:51.709Z,57.36
2019-05-02T16:08:05.397Z,58.91
2019-05-02T16:13:00.726Z,58.80
2019-05-02T16:18:05.344Z,59.48
2019-05-02T16:23:08.749Z,58.86
2019-05-02T16:28:12.691Z,58.65
2019-05-02T16:33:19.759Z,58.60
2019-05-02T16:38:22.230Z,58.59
2019-05-02T16:43:27.590Z,58.41
2019-05-02T16:48:37.425Z,58.55
2019-05-02T16:53:35.976Z,58.91
2019-05-02T16:58:45.310Z,58.46
2019-05-02T17:03:44.560Z,58.91
2019-05-02T17:08:57.366Z,57.50
2019-05-02T17:13:57.622Z,57.63
2019-05-02T17:19:01.676Z,57.90
2019-05-02T17:24:05.170Z,57.17
2019-05-02T17:29:08.530Z,56.47
2019-05-02T17:34:14.651Z,56.50
2019-05-02T17:39:18.798Z,56.53
2019-05-02T17:44:24.472Z,56.25
2019-05-02T17:49:34.800Z,55.78
2019-05-02T17:54:32.357Z,56.40
2019-05-02T17:59:37.575Z,57.44
2019-05-02T18:04:41.920Z,56.96
2019-05-02T18:09:45.362Z,57.03
2019-05-02T18:14:52.536Z,56.92
2019-05-02T18:19:56.763Z,57.80
2019-05-02T18:24:58.833Z,57.79
2019-05-02T18:30:02.387Z,56.58
2019-05-02T18:35:06.445Z,56.37
2019-05-02T18:40:11.769Z,56.29
2019-05-02T18:45:27.366Z,56.34
2019-05-02T18:50:44.289Z,56.06
2019-05-02T18:55:42.444Z,56.07
2019-05-02T19:00:45.784Z,56.18
2019-05-02T19:05:51.486Z,56.17
2019-05-02T19:11:05.346Z,55.66
2019-05-02T19:15:59.314Z,55.64
2019-05-02T19:21:03.349Z,55.38
2019-05-02T19:26:09.948Z,55.16
2019-05-02T19:31:12.046Z,55.33
2019-05-02T19:36:16.224Z,55.36
2019-05-02T19:41:22.314Z,55.33
2019-05-02T19:46:34.742Z,55.30
2019-05-02T19:51:31.699Z,55.30
2019-05-02T19:56:43.931Z,55.18
2019-05-02T20:01:40.139Z,55.20
2019-05-02T20:06:43.454Z,55.01
2019-05-02T20:11:46.761Z,55.01
2019-05-02T20:16:52.894Z,54.99
2019-05-02T20:22:02.883Z,54.87
2019-05-02T20:27:02.991Z,54.93
2019-05-02T20:32:06.315Z,54.95
2019-05-02T20:37:09.798Z,54.94
2019-05-02T20:42:13.118Z,55.06
2019-05-02T20:47:21.744Z,55.03
2019-05-02T20:57:48.387Z,54.91
2019-05-02T21:02:51.931Z,54.93
2019-05-02T21:08:02.337Z,54.86
2019-05-02T21:13:05.725Z,54.74
2019-05-02T21:18:09.061Z,54.70
2019-05-02T21:23:12.392Z,54.64
2019-05-02T21:28:15.736Z,54.63
2019-05-02T21:33:32.034Z,54.66
2019-05-02T21:38:35.378Z,54.69
2019-05-02T21:43:38.693Z,54.60
2019-05-02T21:48:42.178Z,54.54
2019-05-02T21:53:54.913Z,54.52
2019-05-02T21:59:09.563Z,54.51
2019-05-02T22:04:13.285Z,54.53
2019-05-02T22:09:16.704Z,54.46
2019-05-02T22:14:22.088Z,54.52
2019-05-02T22:19:25.140Z,54.35
2019-05-02T22:24:28.488Z,54.44
2019-05-02T22:29:32.431Z,54.36
2019-05-02T22:34:35.908Z,54.25
2019-05-02T22:39:42.050Z,54.30
2019-05-02T22:44:45.527Z,54.36
2019-05-02T22:49:48.887Z,54.19
2019-05-02T22:54:52.475Z,54.26
2019-05-02T22:59:55.796Z,54.27
2019-05-02T23:04:59.147Z,54.29
2019-05-02T23:10:02.596Z,54.19
2019-05-02T23:15:06.735Z,54.30
2019-05-02T23:20:10.084Z,54.19
2019-05-02T23:25:23.940Z,54.31
2019-05-02T23:30:27.376Z,54.03
2019-05-02T23:35:32.003Z,54.13
2019-05-02T23:40:35.793Z,54.13
2019-05-02T23:45:39.144Z,54.42
2019-05-02T23:50:42.522Z,54.59
2019-05-02T23:55:45.876Z,54.49
